createdAt,value
2022-08-05T00:00:55.433Z,99.90
2022-08-05T00:04:05.010Z,99.90
2022-08-05T00:07:26.809Z,99.90
2022-08-05T00:10:31.863Z,99.90
2022-08-05T00:13:40.063Z,99.90
2022-08-05T00:16:53.076Z,99.90
2022-08-05T00:20:02.662Z,99.90
2022-08-05T00:23:12.723Z,99.90
2022-08-05T00:26:17.336Z,99.90
2022-08-05T00:29:22.635Z,99.90
2022-08-05T00:32:26.168Z,99.90
2022-08-05T00:35:33.189Z,99.90
2022-08-05T00:38:38.897Z,99.90
2022-08-05T00:41:55.445Z,99.90
2022-08-05T00:48:05.538Z,99.90
2022-08-05T00:51:51.795Z,99.90
2022-08-05T00:54:32.693Z,99.90
2022-08-05T00:57:55.515Z,99.90
2022-08-05T01:04:13.698Z,99.90
2022-08-05T01:07:18.082Z,99.90
2022-08-05T01:10:25.814Z,99.90
2022-08-05T01:13:58.752Z,99.90
2022-08-05T01:17:07.713Z,99.90
2022-08-05T01:20:20.555Z,99.90
2022-08-05T01:23:37.312Z,99.90
2022-08-05T01:26:53.050Z,99.90
2022-08-05T01:30:02.582Z,99.90
2022-08-05T01:33:10.451Z,99.90
2022-08-05T01:36:17.941Z,99.90
2022-08-05T01:39:45.601Z,99.90
2022-08-05T01:42:50.082Z,99.90
2022-08-05T01:45:57.002Z,99.90
2022-08-05T01:49:02.972Z,99.90
2022-08-05T01:52:28.047Z,99.90
2022-08-05T01:55:36.012Z,99.90
2022-08-05T02:03:16.372Z,99.90
2022-08-05T02:06:38.445Z,99.90
2022-08-05T02:09:42.539Z,99.90
2022-08-05T02:12:57.177Z,99.90
2022-08-05T02:16:06.877Z,99.90
2022-08-05T02:19:26.435Z,99.90
2022-08-05T02:22:36.272Z,99.90
2022-08-05T02:25:50.227Z,99.90
2022-08-05T02:28:56.020Z,99.90
2022-08-05T02:32:04.570Z,99.90
2022-08-05T02:35:14.251Z,99.90
2022-08-05T02:38:19.939Z,99.90
2022-08-05T02:41:28.865Z,99.90
2022-08-05T02:44:40.983Z,99.90
2022-08-05T02:48:07.033Z,99.90
2022-08-05T02:51:10.778Z,99.90
2022-08-05T02:54:36.108Z,99.90
2022-08-05T02:58:10.618Z,99.90
2022-08-05T03:01:05.389Z,99.90
2022-08-05T03:04:14.145Z,99.90
2022-08-05T03:07:59.238Z,99.90
2022-08-05T03:14:08.777Z,99.90
2022-08-05T03:17:16.534Z,99.90
2022-08-05T03:20:19.826Z,99.90
2022-08-05T03:23:24.196Z,99.90
2022-08-05T03:29:45.972Z,99.90
2022-08-05T03:33:00.762Z,99.90
2022-08-05T03:36:06.622Z,99.90
2022-08-05T03:39:20.133Z,99.90
2022-08-05T03:45:57.754Z,99.90
2022-08-05T03:49:01.900Z,99.90
2022-08-05T03:52:36.873Z,99.90
2022-08-05T03:56:09.782Z,99.90
2022-08-05T03:59:07.498Z,99.90
2022-08-05T04:02:14.992Z,99.90
2022-08-05T04:05:21.349Z,99.90
2022-08-05T04:08:36.463Z,99.90
2022-08-05T04:11:50.409Z,99.90
2022-08-05T04:14:57.600Z,99.90
2022-08-05T04:18:03.878Z,99.90
2022-08-05T04:24:19.502Z,99.90
2022-08-05T04:27:41.760Z,99.90
2022-08-05T04:34:17.165Z,99.90
2022-08-05T04:37:16.396Z,99.90
2022-08-05T04:40:20.121Z,99.90
2022-08-05T04:43:23.439Z,99.90
2022-08-05T04:46:30.753Z,99.90
2022-08-05T04:49:38.348Z,99.90
2022-08-05T04:52:57.549Z,99.90
2022-08-05T04:56:15.192Z,99.90
2022-08-05T04:59:26.669Z,99.90
2022-08-05T05:02:43.550Z,99.90
2022-08-05T05:06:39.968Z,99.90
2022-08-05T05:09:13.994Z,99.90
2022-08-05T05:12:20.480Z,99.90
2022-08-05T05:15:57.220Z,99.90
2022-08-05T05:22:24.101Z,99.90
2022-08-05T05:25:32.647Z,99.90
2022-08-05T05:37:59.794Z,99.90
2022-08-05T05:41:05.312Z,99.90
2022-08-05T05:44:35.621Z,99.90
2022-08-05T05:48:05.559Z,99.90
2022-08-05T05:54:19.707Z,99.90
2022-08-05T05:57:23.103Z,99.90
2022-08-05T06:00:27.746Z,99.90
2022-08-05T06:03:53.932Z,99.90
2022-08-05T07:00:22.467Z,99.90
2022-08-05T07:03:32.463Z,99.90
2022-08-05T07:06:36.534Z,99.90
2022-08-05T07:09:40.666Z,99.90
2022-08-05T07:17:56.990Z,99.90
2022-08-05T07:20:31.717Z,99.90
2022-08-05T07:26:33.004Z,91.60
2022-08-05T07:30:23.909Z,94.10
2022-08-05T07:36:21.276Z,93.70
2022-08-05T07:40:04.273Z,80.30
2022-08-05T07:42:48.285Z,64.60
2022-08-05T07:49:06.121Z,66.30
2022-08-05T07:52:11.240Z,66.90
2022-08-05T07:55:16.017Z,53.30
2022-08-05T07:58:58.700Z,33.40
2022-08-05T08:02:03.149Z,57.50
2022-08-05T08:05:08.349Z,31.30
2022-08-05T08:08:15.155Z,34.70
2022-08-05T08:11:18.671Z,28.10
2022-08-05T08:14:31.122Z,51.90
2022-08-05T08:17:35.281Z,22.80
2022-08-05T08:20:45.293Z,18.30
2022-08-05T08:24:05.637Z,26.60
2022-08-05T08:27:10.132Z,1.00
2022-08-05T08:30:32.667Z,1.00
2022-08-05T08:33:42.064Z,8.20
2022-08-05T08:36:54.640Z,1.00
2022-08-05T08:40:00.277Z,1.00
2022-08-05T08:45:19.418Z,1.00
2022-08-05T08:46:33.476Z,1.00
2022-08-05T08:50:07.615Z,1.00
2022-08-05T08:53:08.177Z,1.00
2022-08-05T08:56:15.707Z,1.00
2022-08-05T08:59:20.076Z,1.00
2022-08-05T09:02:26.863Z,1.00
2022-08-05T09:05:38.767Z,1.00
2022-08-05T09:12:03.352Z,1.00
2022-08-05T09:15:17.007Z,1.00
2022-08-05T09:18:20.693Z,1.00
2022-08-05T09:22:21.939Z,1.00
2022-08-05T09:25:00.445Z,1.00
2022-08-05T09:28:15.794Z,1.00
2022-08-05T09:32:40.726Z,1.00
2022-08-05T09:34:49.833Z,1.00
2022-08-05T09:38:16.564Z,1.00
2022-08-05T09:41:19.517Z,1.00
2022-08-05T09:44:35.267Z,1.00
2022-08-05T09:47:56.320Z,1.00
2022-08-05T09:51:02.285Z,1.00
2022-08-05T09:54:09.305Z,1.00
2022-08-05T09:57:30.658Z,1.00
2022-08-05T10:00:39.475Z,1.00
2022-08-05T10:03:59.457Z,1.00
2022-08-05T10:07:19.659Z,1.00
2022-08-05T10:10:28.269Z,1.00
2022-08-05T10:13:47.476Z,1.00
2022-08-05T10:16:53.493Z,1.00
2022-08-05T10:20:03.972Z,1.00
2022-08-05T10:23:34.730Z,1.00
2022-08-05T10:26:51.344Z,1.00
2022-08-05T10:30:07.123Z,1.00
2022-08-05T10:33:21.437Z,1.00
2022-08-05T10:36:26.077Z,1.00
2022-08-05T10:40:03.610Z,1.00
2022-08-05T10:43:04.690Z,1.00
2022-08-05T10:46:12.164Z,1.00
2022-08-05T10:49:16.794Z,1.00
2022-08-05T10:52:46.993Z,1.00
2022-08-05T10:56:21.633Z,1.00
2022-08-05T11:00:02.547Z,1.00
2022-08-05T11:03:24.233Z,1.00
2022-08-05T11:06:30.893Z,1.00
2022-08-05T11:09:46.942Z,1.00
2022-08-05T11:12:54.856Z,1.00
2022-08-05T11:16:22.815Z,1.00
2022-08-05T11:20:10.433Z,1.00
2022-08-05T11:24:02.492Z,1.00
2022-08-05T11:27:51.386Z,1.00
2022-08-05T11:31:54.345Z,1.00
2022-08-05T11:34:57.280Z,1.00
2022-08-05T11:38:30.245Z,1.00
2022-08-05T11:41:56.477Z,1.00
2022-08-05T11:44:52.938Z,1.00
2022-08-05T11:47:58.634Z,1.00
2022-08-05T11:51:05.568Z,1.00
2022-08-05T11:54:09.528Z,1.00
2022-08-05T11:57:25.024Z,1.00
2022-08-05T12:00:30.418Z,1.00
2022-08-05T12:03:43.761Z,1.00
2022-08-05T12:07:02.451Z,1.00
2022-08-05T12:10:12.328Z,1.00
2022-08-05T12:13:27.867Z,1.00
2022-08-05T12:16:45.631Z,1.00
2022-08-05T12:20:16.627Z,1.00
2022-08-05T12:23:16.172Z,1.00
2022-08-05T12:26:19.504Z,1.00
2022-08-05T12:29:24.790Z,1.00
2022-08-05T12:32:28.184Z,1.00
2022-08-05T12:35:37.264Z,1.00
2022-08-05T12:38:45.035Z,1.00
2022-08-05T12:44:52.296Z,1.00
2022-08-05T12:48:01.777Z,1.00
2022-08-05T12:51:21.768Z,1.00
2022-08-05T12:54:46.426Z,1.00
2022-08-05T12:58:49.663Z,1.00
2022-08-05T13:02:01.887Z,1.00
2022-08-05T13:04:52.334Z,1.00
2022-08-05T13:08:01.015Z,1.00
2022-08-05T13:14:19.485Z,1.00
2022-08-05T13:17:31.584Z,1.00
2022-08-05T13:20:44.655Z,1.00
2022-08-05T13:23:50.637Z,1.00
2022-08-05T13:26:56.989Z,1.00
2022-08-05T13:30:35.460Z,1.00
2022-08-05T13:34:22.109Z,1.00
2022-08-05T13:36:48.960Z,1.00
2022-08-05T13:40:16.699Z,1.00
2022-08-05T13:43:22.049Z,1.00
2022-08-05T13:46:37.757Z,1.00
2022-08-05T13:49:52.505Z,1.00
2022-08-05T13:53:00.324Z,1.00
2022-08-05T13:56:04.549Z,1.00
2022-08-05T13:59:27.333Z,1.00
2022-08-05T14:02:33.299Z,1.00
2022-08-05T14:06:04.909Z,1.00
2022-08-05T14:09:01.376Z,1.00
2022-08-05T14:12:17.872Z,1.00
2022-08-05T14:16:08.353Z,1.00
2022-08-05T14:18:50.000Z,1.00
2022-08-05T14:22:09.337Z,1.00
2022-08-05T14:25:21.824Z,1.00
2022-08-05T14:28:26.880Z,1.00
2022-08-05T14:34:56.946Z,1.00
2022-08-05T14:38:01.233Z,1.00
2022-08-05T14:41:07.774Z,1.00
2022-08-05T14:44:20.180Z,1.00
2022-08-05T14:50:49.773Z,1.00
2022-08-05T14:54:28.752Z,1.00
2022-08-05T14:57:17.007Z,1.00
2022-08-05T15:04:29.781Z,1.00
2022-08-05T15:12:16.457Z,1.00
2022-08-05T15:18:47.815Z,1.00
2022-08-05T15:43:52.171Z,1.00
2022-08-05T15:46:59.515Z,1.00
2022-08-05T15:50:03.610Z,1.00
2022-08-05T15:53:09.206Z,1.00
2022-08-05T15:56:19.590Z,1.00
2022-08-05T15:59:33.598Z,1.00
2022-08-05T16:02:40.976Z,1.00
2022-08-05T16:05:52.163Z,1.00
2022-08-05T16:09:00.054Z,1.00
2022-08-05T16:12:03.961Z,1.00
2022-08-05T16:20:24.669Z,1.00
2022-08-05T16:27:32.206Z,1.00
2022-08-05T16:30:48.156Z,1.00
2022-08-05T16:33:54.315Z,1.00
2022-08-05T16:36:59.166Z,1.00
2022-08-05T16:40:06.410Z,1.00
2022-08-05T16:43:10.802Z,1.00
2022-08-05T16:46:24.174Z,1.00
2022-08-05T16:49:29.094Z,1.00
2022-08-05T16:52:34.345Z,1.00
2022-08-05T16:58:51.239Z,1.00
2022-08-05T17:01:56.220Z,1.00
2022-08-05T17:04:59.992Z,1.00
2022-08-05T17:08:05.287Z,1.00
2022-08-05T17:11:16.924Z,1.00
2022-08-05T17:14:34.208Z,1.00
2022-08-05T17:20:47.257Z,1.00
2022-08-05T17:30:28.927Z,1.00
2022-08-05T17:33:38.958Z,1.00
2022-08-05T17:36:52.181Z,1.00
2022-08-05T17:39:59.968Z,6.80
2022-08-05T17:43:07.566Z,13.70
2022-08-05T17:46:13.921Z,13.10
2022-08-05T17:52:21.845Z,28.50
2022-08-05T17:55:37.217Z,35.40
2022-08-05T17:58:42.211Z,39.40
2022-08-05T18:01:50.211Z,48.40
2022-08-05T18:04:55.118Z,57.30
2022-08-05T18:07:59.116Z,62.50
2022-08-05T18:14:13.355Z,76.40
2022-08-05T18:18:00.202Z,84.80
2022-08-05T18:23:53.670Z,98.70
2022-08-05T18:26:59.399Z,99.10
2022-08-05T18:30:03.243Z,96.50
2022-08-05T18:33:08.616Z,96.70
2022-08-05T18:36:19.046Z,99.90
2022-08-05T18:40:31.757Z,99.90
2022-08-05T18:45:54.077Z,99.90
2022-08-05T18:49:30.485Z,99.90
2022-08-05T18:52:36.230Z,99.90
2022-08-05T18:55:40.058Z,99.90
2022-08-05T18:58:45.564Z,99.90
2022-08-05T19:01:58.495Z,99.90
2022-08-05T19:06:06.337Z,99.90
2022-08-05T19:08:30.669Z,99.90
2022-08-05T19:11:54.810Z,99.90
2022-08-05T19:18:10.350Z,99.90
2022-08-05T19:21:15.787Z,99.90
2022-08-05T19:24:34.415Z,99.90
2022-08-05T19:27:40.315Z,99.90
2022-08-05T19:30:49.506Z,99.90
2022-08-05T19:33:56.685Z,99.90
2022-08-05T19:37:00.861Z,99.90
2022-08-05T19:40:08.078Z,99.90
2022-08-05T19:44:04.746Z,99.90
2022-08-05T19:46:43.833Z,99.90
2022-08-05T19:49:48.595Z,99.90
2022-08-05T19:52:54.075Z,99.90
2022-08-05T19:56:13.795Z,99.90
2022-08-05T19:59:54.001Z,99.90
2022-08-05T20:02:49.085Z,99.90
2022-08-05T20:05:56.824Z,99.90
2022-08-05T20:09:13.945Z,99.90
2022-08-05T20:12:19.103Z,99.90
2022-08-05T20:15:50.864Z,99.90
2022-08-05T20:18:55.419Z,99.90
2022-08-05T20:21:59.524Z,99.90
2022-08-05T20:25:03.563Z,99.90
2022-08-05T20:28:13.566Z,99.90
2022-08-05T20:31:21.659Z,99.90
2022-08-05T20:34:33.384Z,99.90
2022-08-05T20:38:05.592Z,99.90
2022-08-05T20:41:04.599Z,99.90
2022-08-05T20:44:18.721Z,99.90
2022-08-05T20:47:33.555Z,99.90
2022-08-05T20:50:47.013Z,99.90
2022-08-05T20:53:56.927Z,99.90
2022-08-05T20:57:01.153Z,99.90
2022-08-05T21:00:21.295Z,99.90
2022-08-05T21:03:34.361Z,99.90
2022-08-05T21:06:45.687Z,99.90
2022-08-05T21:09:53.449Z,99.90
2022-08-05T21:13:08.782Z,99.90
2022-08-05T21:16:18.145Z,99.90
2022-08-05T21:19:21.618Z,99.90
2022-08-05T21:22:29.697Z,99.90
2022-08-05T21:25:34.356Z,99.90
2022-08-05T21:28:38.260Z,99.90
2022-08-05T21:35:08.935Z,99.90
2022-08-05T21:42:01.632Z,99.90
2022-08-05T21:48:38.545Z,99.90
2022-08-05T21:52:22.373Z,99.90
2022-08-05T21:55:09.459Z,99.90
2022-08-05T21:58:13.293Z,99.90
2022-08-05T22:01:24.730Z,99.90
2022-08-05T22:07:40.373Z,99.90
2022-08-05T22:10:57.754Z,99.90
2022-08-05T22:17:24.937Z,99.90
2022-08-05T22:24:02.095Z,99.90
2022-08-05T22:28:08.470Z,99.90
2022-08-05T22:30:55.771Z,99.90
2022-08-05T22:34:01.638Z,99.90
2022-08-05T22:37:05.748Z,99.90
2022-08-05T22:40:10.614Z,99.90
2022-08-05T22:43:36.713Z,99.90
2022-08-05T22:53:10.362Z,99.90
2022-08-05T22:56:30.230Z,99.90
2022-08-05T22:59:46.311Z,99.90
2022-08-05T23:02:53.984Z,99.90
2022-08-05T23:05:58.523Z,99.90
2022-08-05T23:12:25.646Z,99.90
2022-08-05T23:15:35.244Z,99.90
2022-08-05T23:18:39.808Z,99.90
2022-08-05T23:21:48.636Z,99.90
2022-08-05T23:24:52.135Z,99.90
2022-08-05T23:34:24.694Z,99.90
2022-08-05T23:37:36.399Z,99.90
2022-08-05T23:40:40.327Z,99.90
2022-08-05T23:44:04.592Z,99.90
2022-08-05T23:50:20.201Z,99.90
2022-08-05T23:53:23.824Z,99.90
2022-08-05T23:56:31.888Z,99.90
